sensor_id;sensor_type;location;lat;lon;timestamp;P1;durP1;ratioP1;P2;durP2;ratioP2
68379;SDS011;57711;53.196;19.638;2023-02-17T00:00:20;103.90;;;58.10;;
68379;SDS011;57711;53.196;19.638;2023-02-17T00:03:08;122.90;;;68.50;;
68379;SDS011;57711;53.196;19.638;2023-02-17T00:05:37;105.80;;;59.40;;
68379;SDS011;57711;53.196;19.638;2023-02-17T00:08:06;86.70;;;49.00;;
68379;SDS011;57711;53.196;19.638;2023-02-17T00:10:33;83.40;;;43.80;;
68379;SDS011;57711;53.196;19.638;2023-02-17T00:13:00;85.00;;;43.00;;
68379;SDS011;57711;53.196;19.638;2023-02-17T00:15:27;106.90;;;51.70;;
68379;SDS011;57711;53.196;19.638;2023-02-17T00:17:54;182.70;;;76.80;;
68379;SDS011;57711;53.196;19.638;2023-02-17T00:20:21;226.10;;;91.20;;
68379;SDS011;57711;53.196;19.638;2023-02-17T00:22:48;121.30;;;48.10;;
68379;SDS011;57711;53.196;19.638;2023-02-17T00:25:16;115.70;;;52.70;;
68379;SDS011;57711;53.196;19.638;2023-02-17T00:27:43;167.10;;;68.80;;
68379;SDS011;57711;53.196;19.638;2023-02-17T00:30:10;131.10;;;56.10;;
68379;SDS011;57711;53.196;19.638;2023-02-17T00:32:37;166.90;;;70.30;;
68379;SDS011;57711;53.196;19.638;2023-02-17T00:35:04;107.70;;;48.30;;
68379;SDS011;57711;53.196;19.638;2023-02-17T00:37:33;106.70;;;46.80;;
68379;SDS011;57711;53.196;19.638;2023-02-17T00:43:39;102.70;;;50.80;;
68379;SDS011;57711;53.196;19.638;2023-02-17T00:46:15;82.30;;;43.50;;
68379;SDS011;57711;53.196;19.638;2023-02-17T00:48:44;88.10;;;46.60;;
68379;SDS011;57711;53.196;19.638;2023-02-17T00:51:12;73.70;;;38.70;;
68379;SDS011;57711;53.196;19.638;2023-02-17T00:53:40;87.40;;;45.30;;
68379;SDS011;57711;53.196;19.638;2023-02-17T00:56:07;93.00;;;45.50;;
68379;SDS011;57711;53.196;19.638;2023-02-17T00:58:36;77.40;;;41.60;;
68379;SDS011;57711;53.196;19.638;2023-02-17T01:01:04;86.70;;;46.50;;
68379;SDS011;57711;53.196;19.638;2023-02-17T01:03:31;81.40;;;43.20;;
68379;SDS011;57711;53.196;19.638;2023-02-17T01:05:58;91.20;;;45.80;;
68379;SDS011;57711;53.196;19.638;2023-02-17T01:08:32;95.40;;;45.70;;
68379;SDS011;57711;53.196;19.638;2023-02-17T01:11:00;87.50;;;43.00;;
68379;SDS011;57711;53.196;19.638;2023-02-17T01:13:27;82.80;;;42.60;;
68379;SDS011;57711;53.196;19.638;2023-02-17T01:15:54;78.00;;;45.20;;
68379;SDS011;57711;53.196;19.638;2023-02-17T01:18:22;80.20;;;43.60;;
68379;SDS011;57711;53.196;19.638;2023-02-17T01:20:50;83.00;;;40.50;;
68379;SDS011;57711;53.196;19.638;2023-02-17T01:23:18;114.80;;;53.30;;
68379;SDS011;57711;53.196;19.638;2023-02-17T01:25:46;212.40;;;73.60;;
68379;SDS011;57711;53.196;19.638;2023-02-17T01:28:17;95.60;;;46.50;;
68379;SDS011;57711;53.196;19.638;2023-02-17T01:30:47;138.40;;;55.70;;
68379;SDS011;57711;53.196;19.638;2023-02-17T01:33:15;89.40;;;40.80;;
68379;SDS011;57711;53.196;19.638;2023-02-17T01:35:43;101.90;;;46.80;;
68379;SDS011;57711;53.196;19.638;2023-02-17T01:38:11;140.90;;;56.10;;
68379;SDS011;57711;53.196;19.638;2023-02-17T01:40:44;105.10;;;50.80;;
68379;SDS011;57711;53.196;19.638;2023-02-17T01:43:14;182.60;;;75.90;;
68379;SDS011;57711;53.196;19.638;2023-02-17T01:45:50;111.20;;;51.00;;
68379;SDS011;57711;53.196;19.638;2023-02-17T01:48:26;97.70;;;48.50;;
68379;SDS011;57711;53.196;19.638;2023-02-17T01:53:32;75.30;;;40.10;;
68379;SDS011;57711;53.196;19.638;2023-02-17T01:56:03;91.90;;;43.70;;
68379;SDS011;57711;53.196;19.638;2023-02-17T01:58:31;75.90;;;40.50;;
68379;SDS011;57711;53.196;19.638;2023-02-17T02:01:00;71.50;;;38.40;;
68379;SDS011;57711;53.196;19.638;2023-02-17T02:03:31;89.70;;;47.00;;
68379;SDS011;57711;53.196;19.638;2023-02-17T02:06:00;82.90;;;45.50;;
68379;SDS011;57711;53.196;19.638;2023-02-17T02:08:33;71.90;;;37.30;;
68379;SDS011;57711;53.196;19.638;2023-02-17T02:11:11;75.10;;;38.90;;
68379;SDS011;57711;53.196;19.638;2023-02-17T02:13:38;71.20;;;37.30;;
68379;SDS011;57711;53.196;19.638;2023-02-17T02:16:12;78.80;;;38.30;;
68379;SDS011;57711;53.196;19.638;2023-02-17T02:21:30;75.90;;;38.90;;
68379;SDS011;57711;53.196;19.638;2023-02-17T02:24:27;80.30;;;41.40;;
68379;SDS011;57711;53.196;19.638;2023-02-17T02:29:49;101.20;;;50.60;;
68379;SDS011;57711;53.196;19.638;2023-02-17T02:35:38;143.60;;;60.40;;
68379;SDS011;57711;53.196;19.638;2023-02-17T02:41:06;77.40;;;38.70;;
68379;SDS011;57711;53.196;19.638;2023-02-17T02:43:37;77.60;;;37.30;;
68379;SDS011;57711;53.196;19.638;2023-02-17T02:46:04;85.30;;;41.50;;
68379;SDS011;57711;53.196;19.638;2023-02-17T02:48:32;131.70;;;58.80;;
68379;SDS011;57711;53.196;19.638;2023-02-17T02:51:04;79.10;;;42.10;;
68379;SDS011;57711;53.196;19.638;2023-02-17T03:01:50;69.50;;;36.40;;
68379;SDS011;57711;53.196;19.638;2023-02-17T03:04:28;76.90;;;38.90;;
68379;SDS011;57711;53.196;19.638;2023-02-17T03:07:14;83.80;;;43.00;;
68379;SDS011;57711;53.196;19.638;2023-02-17T03:09:50;83.90;;;43.80;;
68379;SDS011;57711;53.196;19.638;2023-02-17T03:12:20;80.90;;;42.50;;
68379;SDS011;57711;53.196;19.638;2023-02-17T03:14:49;82.70;;;40.70;;
68379;SDS011;57711;53.196;19.638;2023-02-17T03:17:18;74.40;;;41.30;;
68379;SDS011;57711;53.196;19.638;2023-02-17T03:19:48;77.90;;;38.60;;
68379;SDS011;57711;53.196;19.638;2023-02-17T03:22:18;73.40;;;38.50;;
68379;SDS011;57711;53.196;19.638;2023-02-17T03:24:48;56.90;;;31.90;;
68379;SDS011;57711;53.196;19.638;2023-02-17T03:27:16;67.50;;;36.50;;
68379;SDS011;57711;53.196;19.638;2023-02-17T03:29:43;78.20;;;40.80;;
68379;SDS011;57711;53.196;19.638;2023-02-17T03:32:10;81.60;;;47.00;;
68379;SDS011;57711;53.196;19.638;2023-02-17T03:34:38;70.70;;;37.80;;
68379;SDS011;57711;53.196;19.638;2023-02-17T03:37:05;71.70;;;38.60;;
68379;SDS011;57711;53.196;19.638;2023-02-17T03:39:32;81.50;;;42.20;;
68379;SDS011;57711;53.196;19.638;2023-02-17T03:41:59;62.90;;;33.90;;
68379;SDS011;57711;53.196;19.638;2023-02-17T03:44:28;63.50;;;34.70;;
68379;SDS011;57711;53.196;19.638;2023-02-17T03:46:55;125.90;;;48.40;;
68379;SDS011;57711;53.196;19.638;2023-02-17T03:49:22;194.40;;;68.70;;
68379;SDS011;57711;53.196;19.638;2023-02-17T03:51:49;97.60;;;44.70;;
68379;SDS011;57711;53.196;19.638;2023-02-17T03:54:16;77.90;;;37.10;;
68379;SDS011;57711;53.196;19.638;2023-02-17T03:56:43;62.00;;;33.00;;
68379;SDS011;57711;53.196;19.638;2023-02-17T03:59:11;72.30;;;37.60;;
68379;SDS011;57711;53.196;19.638;2023-02-17T04:01:38;64.70;;;35.40;;
68379;SDS011;57711;53.196;19.638;2023-02-17T04:04:05;71.60;;;34.50;;
68379;SDS011;57711;53.196;19.638;2023-02-17T04:06:32;63.50;;;35.40;;
68379;SDS011;57711;53.196;19.638;2023-02-17T04:09:00;71.00;;;37.10;;
68379;SDS011;57711;53.196;19.638;2023-02-17T04:11:27;80.20;;;42.50;;
68379;SDS011;57711;53.196;19.638;2023-02-17T04:13:54;71.30;;;35.80;;
68379;SDS011;57711;53.196;19.638;2023-02-17T04:16:21;69.40;;;37.70;;
68379;SDS011;57711;53.196;19.638;2023-02-17T04:18:48;71.00;;;35.40;;
68379;SDS011;57711;53.196;19.638;2023-02-17T04:21:15;63.10;;;31.20;;
68379;SDS011;57711;53.196;19.638;2023-02-17T04:23:43;58.50;;;32.00;;
68379;SDS011;57711;53.196;19.638;2023-02-17T04:26:10;71.30;;;37.30;;
68379;SDS011;57711;53.196;19.638;2023-02-17T04:28:37;73.90;;;39.50;;
68379;SDS011;57711;53.196;19.638;2023-02-17T04:31:05;73.90;;;36.80;;
68379;SDS011;57711;53.196;19.638;2023-02-17T04:33:33;64.80;;;33.80;;
68379;SDS011;57711;53.196;19.638;2023-02-17T04:36:01;62.30;;;31.60;;
68379;SDS011;57711;53.196;19.638;2023-02-17T04:38:28;59.80;;;32.50;;
68379;SDS011;57711;53.196;19.638;2023-02-17T04:40:57;56.70;;;31.10;;
68379;SDS011;57711;53.196;19.638;2023-02-17T04:43:26;64.00;;;33.30;;
68379;SDS011;57711;53.196;19.638;2023-02-17T04:45:54;74.80;;;38.50;;
68379;SDS011;57711;53.196;19.638;2023-02-17T04:48:22;66.50;;;34.40;;
68379;SDS011;57711;53.196;19.638;2023-02-17T04:50:49;62.80;;;35.10;;
68379;SDS011;57711;53.196;19.638;2023-02-17T04:53:17;61.10;;;35.30;;
68379;SDS011;57711;53.196;19.638;2023-02-17T04:55:49;47.80;;;26.80;;
68379;SDS011;57711;53.196;19.638;2023-02-17T04:58:18;57.40;;;31.10;;
68379;SDS011;57711;53.196;19.638;2023-02-17T05:00:46;61.30;;;34.20;;
68379;SDS011;57711;53.196;19.638;2023-02-17T05:03:15;77.40;;;40.50;;
68379;SDS011;57711;53.196;19.638;2023-02-17T05:05:44;79.60;;;41.60;;
68379;SDS011;57711;53.196;19.638;2023-02-17T05:08:11;70.00;;;37.10;;
68379;SDS011;57711;53.196;19.638;2023-02-17T05:10:38;63.50;;;33.60;;
68379;SDS011;57711;53.196;19.638;2023-02-17T05:13:05;56.80;;;33.40;;
68379;SDS011;57711;53.196;19.638;2023-02-17T05:15:33;67.50;;;35.00;;
68379;SDS011;57711;53.196;19.638;2023-02-17T05:18:00;60.40;;;35.20;;
68379;SDS011;57711;53.196;19.638;2023-02-17T05:20:28;74.70;;;37.50;;
68379;SDS011;57711;53.196;19.638;2023-02-17T05:22:55;68.90;;;36.40;;
68379;SDS011;57711;53.196;19.638;2023-02-17T05:25:22;65.60;;;34.10;;
68379;SDS011;57711;53.196;19.638;2023-02-17T05:27:49;68.00;;;36.10;;
68379;SDS011;57711;53.196;19.638;2023-02-17T05:30:17;68.90;;;36.50;;
68379;SDS011;57711;53.196;19.638;2023-02-17T05:32:44;58.10;;;32.10;;
68379;SDS011;57711;53.196;19.638;2023-02-17T05:35:12;66.90;;;35.30;;
68379;SDS011;57711;53.196;19.638;2023-02-17T05:37:39;81.20;;;38.10;;
68379;SDS011;57711;53.196;19.638;2023-02-17T05:40:06;58.90;;;33.80;;
68379;SDS011;57711;53.196;19.638;2023-02-17T05:42:34;72.80;;;38.30;;
68379;SDS011;57711;53.196;19.638;2023-02-17T05:45:01;74.80;;;39.90;;
68379;SDS011;57711;53.196;19.638;2023-02-17T05:47:28;65.10;;;36.50;;
68379;SDS011;57711;53.196;19.638;2023-02-17T05:49:55;61.50;;;31.50;;
68379;SDS011;57711;53.196;19.638;2023-02-17T05:52:22;74.40;;;38.30;;
68379;SDS011;57711;53.196;19.638;2023-02-17T05:54:50;61.90;;;37.30;;
68379;SDS011;57711;53.196;19.638;2023-02-17T05:57:17;70.80;;;37.60;;
68379;SDS011;57711;53.196;19.638;2023-02-17T05:59:44;70.10;;;38.80;;
68379;SDS011;57711;53.196;19.638;2023-02-17T06:02:11;69.50;;;39.30;;
68379;SDS011;57711;53.196;19.638;2023-02-17T06:04:38;63.30;;;33.10;;
68379;SDS011;57711;53.196;19.638;2023-02-17T06:07:06;70.40;;;38.30;;
68379;SDS011;57711;53.196;19.638;2023-02-17T06:09:33;66.00;;;33.70;;
68379;SDS011;57711;53.196;19.638;2023-02-17T06:12:00;70.50;;;35.40;;
68379;SDS011;57711;53.196;19.638;2023-02-17T06:14:28;74.60;;;36.30;;
68379;SDS011;57711;53.196;19.638;2023-02-17T06:16:55;101.40;;;47.20;;
68379;SDS011;57711;53.196;19.638;2023-02-17T06:19:25;95.70;;;45.80;;
68379;SDS011;57711;53.196;19.638;2023-02-17T06:21:52;82.40;;;40.40;;
68379;SDS011;57711;53.196;19.638;2023-02-17T06:24:19;72.00;;;34.10;;
68379;SDS011;57711;53.196;19.638;2023-02-17T06:26:46;76.70;;;35.30;;
68379;SDS011;57711;53.196;19.638;2023-02-17T06:29:13;72.40;;;39.00;;
68379;SDS011;57711;53.196;19.638;2023-02-17T06:31:41;96.30;;;43.80;;
68379;SDS011;57711;53.196;19.638;2023-02-17T06:34:08;77.00;;;42.40;;
68379;SDS011;57711;53.196;19.638;2023-02-17T06:36:36;82.10;;;39.80;;
68379;SDS011;57711;53.196;19.638;2023-02-17T06:39:03;78.60;;;40.70;;
68379;SDS011;57711;53.196;19.638;2023-02-17T06:41:31;72.40;;;41.00;;
68379;SDS011;57711;53.196;19.638;2023-02-17T06:43:59;65.50;;;37.70;;
68379;SDS011;57711;53.196;19.638;2023-02-17T06:46:26;112.40;;;55.30;;
68379;SDS011;57711;53.196;19.638;2023-02-17T06:48:53;94.60;;;46.30;;
68379;SDS011;57711;53.196;19.638;2023-02-17T06:51:20;99.20;;;52.90;;
68379;SDS011;57711;53.196;19.638;2023-02-17T06:53:47;89.00;;;46.70;;
68379;SDS011;57711;53.196;19.638;2023-02-17T06:56:14;97.90;;;49.60;;
68379;SDS011;57711;53.196;19.638;2023-02-17T06:58:42;83.80;;;43.10;;
68379;SDS011;57711;53.196;19.638;2023-02-17T07:01:19;110.60;;;53.40;;
68379;SDS011;57711;53.196;19.638;2023-02-17T07:03:47;104.90;;;49.90;;
68379;SDS011;57711;53.196;19.638;2023-02-17T07:06:15;145.00;;;62.30;;
68379;SDS011;57711;53.196;19.638;2023-02-17T07:08:42;139.90;;;57.30;;
68379;SDS011;57711;53.196;19.638;2023-02-17T07:11:10;240.60;;;85.90;;
68379;SDS011;57711;53.196;19.638;2023-02-17T07:13:39;119.60;;;49.10;;
68379;SDS011;57711;53.196;19.638;2023-02-17T07:16:08;119.40;;;43.40;;
68379;SDS011;57711;53.196;19.638;2023-02-17T07:18:36;115.50;;;41.20;;
68379;SDS011;57711;53.196;19.638;2023-02-17T07:21:04;133.30;;;51.50;;
68379;SDS011;57711;53.196;19.638;2023-02-17T07:23:32;71.70;;;35.90;;
68379;SDS011;57711;53.196;19.638;2023-02-17T07:26:07;73.60;;;36.40;;
68379;SDS011;57711;53.196;19.638;2023-02-17T07:28:37;75.60;;;40.30;;
68379;SDS011;57711;53.196;19.638;2023-02-17T07:31:06;61.70;;;36.30;;
68379;SDS011;57711;53.196;19.638;2023-02-17T07:33:37;55.50;;;34.10;;
68379;SDS011;57711;53.196;19.638;2023-02-17T07:36:08;58.70;;;32.30;;
68379;SDS011;57711;53.196;19.638;2023-02-17T07:38:37;52.50;;;30.40;;
68379;SDS011;57711;53.196;19.638;2023-02-17T07:41:09;50.60;;;28.30;;
68379;SDS011;57711;53.196;19.638;2023-02-17T07:43:38;52.30;;;30.70;;
68379;SDS011;57711;53.196;19.638;2023-02-17T07:46:05;162.80;;;64.20;;
68379;SDS011;57711;53.196;19.638;2023-02-17T07:48:34;122.70;;;48.30;;
68379;SDS011;57711;53.196;19.638;2023-02-17T07:51:05;88.20;;;41.80;;
68379;SDS011;57711;53.196;19.638;2023-02-17T07:53:33;110.90;;;53.10;;
68379;SDS011;57711;53.196;19.638;2023-02-17T07:56:02;95.90;;;41.90;;
68379;SDS011;57711;53.196;19.638;2023-02-17T07:58:35;70.80;;;36.20;;
68379;SDS011;57711;53.196;19.638;2023-02-17T08:01:04;61.50;;;33.00;;
68379;SDS011;57711;53.196;19.638;2023-02-17T08:03:35;63.80;;;34.00;;
68379;SDS011;57711;53.196;19.638;2023-02-17T08:06:03;81.70;;;41.10;;
68379;SDS011;57711;53.196;19.638;2023-02-17T08:08:35;72.10;;;34.60;;
68379;SDS011;57711;53.196;19.638;2023-02-17T08:11:21;68.60;;;31.80;;
68379;SDS011;57711;53.196;19.638;2023-02-17T08:14:09;68.40;;;34.30;;
68379;SDS011;57711;53.196;19.638;2023-02-17T08:16:38;60.00;;;32.40;;
68379;SDS011;57711;53.196;19.638;2023-02-17T08:19:06;62.30;;;33.90;;
68379;SDS011;57711;53.196;19.638;2023-02-17T08:21:33;52.90;;;28.10;;
68379;SDS011;57711;53.196;19.638;2023-02-17T08:24:01;58.80;;;30.20;;
68379;SDS011;57711;53.196;19.638;2023-02-17T08:26:28;51.60;;;29.00;;
68379;SDS011;57711;53.196;19.638;2023-02-17T08:28:55;102.40;;;38.50;;
68379;SDS011;57711;53.196;19.638;2023-02-17T08:31:27;71.60;;;32.00;;
68379;SDS011;57711;53.196;19.638;2023-02-17T08:33:56;59.30;;;31.40;;
68379;SDS011;57711;53.196;19.638;2023-02-17T08:36:23;55.60;;;30.30;;
68379;SDS011;57711;53.196;19.638;2023-02-17T08:38:51;54.00;;;28.90;;
68379;SDS011;57711;53.196;19.638;2023-02-17T08:41:21;51.40;;;29.40;;
68379;SDS011;57711;53.196;19.638;2023-02-17T08:43:51;63.30;;;34.30;;
68379;SDS011;57711;53.196;19.638;2023-02-17T08:46:18;65.20;;;34.40;;
68379;SDS011;57711;53.196;19.638;2023-02-17T08:48:46;70.90;;;34.20;;
68379;SDS011;57711;53.196;19.638;2023-02-17T08:51:15;59.60;;;31.80;;
68379;SDS011;57711;53.196;19.638;2023-02-17T08:53:44;58.80;;;32.70;;
68379;SDS011;57711;53.196;19.638;2023-02-17T08:56:12;54.50;;;29.20;;
68379;SDS011;57711;53.196;19.638;2023-02-17T08:58:39;64.80;;;36.70;;
68379;SDS011;57711;53.196;19.638;2023-02-17T09:01:06;63.30;;;29.60;;
68379;SDS011;57711;53.196;19.638;2023-02-17T09:03:34;67.40;;;31.50;;
68379;SDS011;57711;53.196;19.638;2023-02-17T09:06:04;55.90;;;34.00;;
68379;SDS011;57711;53.196;19.638;2023-02-17T09:08:32;58.10;;;33.70;;
68379;SDS011;57711;53.196;19.638;2023-02-17T09:11:00;49.50;;;29.00;;
68379;SDS011;57711;53.196;19.638;2023-02-17T09:13:27;50.30;;;29.60;;
68379;SDS011;57711;53.196;19.638;2023-02-17T09:15:55;58.80;;;31.90;;
68379;SDS011;57711;53.196;19.638;2023-02-17T09:18:22;65.30;;;39.00;;
68379;SDS011;57711;53.196;19.638;2023-02-17T09:20:49;78.80;;;42.30;;
68379;SDS011;57711;53.196;19.638;2023-02-17T09:23:17;117.60;;;50.80;;
68379;SDS011;57711;53.196;19.638;2023-02-17T09:25:44;126.00;;;46.50;;
68379;SDS011;57711;53.196;19.638;2023-02-17T09:28:11;131.40;;;44.80;;
68379;SDS011;57711;53.196;19.638;2023-02-17T09:30:42;92.00;;;39.60;;
68379;SDS011;57711;53.196;19.638;2023-02-17T09:33:09;155.30;;;55.90;;
68379;SDS011;57711;53.196;19.638;2023-02-17T09:35:36;91.90;;;41.20;;
68379;SDS011;57711;53.196;19.638;2023-02-17T09:38:04;74.20;;;38.00;;
68379;SDS011;57711;53.196;19.638;2023-02-17T09:40:41;95.50;;;39.20;;
68379;SDS011;57711;53.196;19.638;2023-02-17T09:43:11;64.80;;;33.60;;
68379;SDS011;57711;53.196;19.638;2023-02-17T09:45:41;62.80;;;31.20;;
68379;SDS011;57711;53.196;19.638;2023-02-17T09:48:13;58.70;;;28.10;;
68379;SDS011;57711;53.196;19.638;2023-02-17T09:50:54;74.00;;;38.80;;
68379;SDS011;57711;53.196;19.638;2023-02-17T09:56:11;80.60;;;40.90;;
68379;SDS011;57711;53.196;19.638;2023-02-17T09:58:49;59.70;;;32.90;;
68379;SDS011;57711;53.196;19.638;2023-02-17T10:01:20;50.20;;;30.00;;
68379;SDS011;57711;53.196;19.638;2023-02-17T10:03:53;58.70;;;32.60;;
68379;SDS011;57711;53.196;19.638;2023-02-17T10:09:15;53.80;;;29.10;;
68379;SDS011;57711;53.196;19.638;2023-02-17T10:11:58;63.60;;;29.70;;
68379;SDS011;57711;53.196;19.638;2023-02-17T10:14:30;58.60;;;29.80;;
68379;SDS011;57711;53.196;19.638;2023-02-17T10:17:07;56.70;;;29.10;;
68379;SDS011;57711;53.196;19.638;2023-02-17T10:22:37;199.60;;;64.70;;
68379;SDS011;57711;53.196;19.638;2023-02-17T10:25:17;132.50;;;44.10;;
68379;SDS011;57711;53.196;19.638;2023-02-17T10:27:54;198.70;;;72.70;;
68379;SDS011;57711;53.196;19.638;2023-02-17T10:30:37;125.40;;;54.70;;
68379;SDS011;57711;53.196;19.638;2023-02-17T10:33:20;71.70;;;37.00;;
68379;SDS011;57711;53.196;19.638;2023-02-17T10:38:48;53.50;;;29.50;;
68379;SDS011;57711;53.196;19.638;2023-02-17T10:41:23;56.20;;;28.80;;
68379;SDS011;57711;53.196;19.638;2023-02-17T10:43:58;49.80;;;28.90;;
68379;SDS011;57711;53.196;19.638;2023-02-17T10:46:29;47.40;;;27.80;;
68379;SDS011;57711;53.196;19.638;2023-02-17T10:48:58;60.40;;;34.10;;
68379;SDS011;57711;53.196;19.638;2023-02-17T10:51:27;47.60;;;26.40;;
68379;SDS011;57711;53.196;19.638;2023-02-17T10:54:02;48.60;;;28.00;;
68379;SDS011;57711;53.196;19.638;2023-02-17T10:56:43;57.90;;;31.40;;
68379;SDS011;57711;53.196;19.638;2023-02-17T10:59:33;55.60;;;29.20;;
68379;SDS011;57711;53.196;19.638;2023-02-17T11:02:51;46.00;;;24.60;;
68379;SDS011;57711;53.196;19.638;2023-02-17T11:05:06;49.40;;;26.50;;
68379;SDS011;57711;53.196;19.638;2023-02-17T11:07:35;55.30;;;30.20;;
68379;SDS011;57711;53.196;19.638;2023-02-17T11:10:23;84.20;;;38.10;;
68379;SDS011;57711;53.196;19.638;2023-02-17T11:12:54;56.10;;;25.60;;
68379;SDS011;57711;53.196;19.638;2023-02-17T11:15:34;45.50;;;24.80;;
68379;SDS011;57711;53.196;19.638;2023-02-17T11:18:09;52.30;;;29.30;;
68379;SDS011;57711;53.196;19.638;2023-02-17T11:20:44;57.40;;;29.40;;
68379;SDS011;57711;53.196;19.638;2023-02-17T11:25:42;48.40;;;26.30;;
68379;SDS011;57711;53.196;19.638;2023-02-17T11:28:21;47.40;;;25.20;;
68379;SDS011;57711;53.196;19.638;2023-02-17T11:30:52;51.90;;;27.90;;
68379;SDS011;57711;53.196;19.638;2023-02-17T11:33:23;48.30;;;25.60;;
68379;SDS011;57711;53.196;19.638;2023-02-17T11:35:57;40.20;;;23.40;;
68379;SDS011;57711;53.196;19.638;2023-02-17T11:38:26;48.40;;;26.40;;
68379;SDS011;57711;53.196;19.638;2023-02-17T11:41:14;41.60;;;23.50;;
68379;SDS011;57711;53.196;19.638;2023-02-17T11:43:51;39.50;;;23.60;;
68379;SDS011;57711;53.196;19.638;2023-02-17T11:46:28;50.20;;;25.60;;
68379;SDS011;57711;53.196;19.638;2023-02-17T11:52:11;45.10;;;24.50;;
68379;SDS011;57711;53.196;19.638;2023-02-17T12:08:43;73.20;;;32.50;;
68379;SDS011;57711;53.196;19.638;2023-02-17T12:13:51;80.10;;;34.60;;
68379;SDS011;57711;53.196;19.638;2023-02-17T12:19:00;80.40;;;35.50;;
68379;SDS011;57711;53.196;19.638;2023-02-17T12:21:53;89.40;;;41.50;;
68379;SDS011;57711;53.196;19.638;2023-02-17T12:27:02;66.00;;;33.90;;
68379;SDS011;57711;53.196;19.638;2023-02-17T12:32:29;65.50;;;35.90;;
68379;SDS011;57711;53.196;19.638;2023-02-17T12:37:44;76.60;;;36.60;;
68379;SDS011;57711;53.196;19.638;2023-02-17T12:42:56;74.40;;;35.60;;
68379;SDS011;57711;53.196;19.638;2023-02-17T12:45:49;63.20;;;35.00;;
68379;SDS011;57711;53.196;19.638;2023-02-17T12:51:16;51.70;;;29.00;;
68379;SDS011;57711;53.196;19.638;2023-02-17T12:53:50;49.30;;;27.90;;
68379;SDS011;57711;53.196;19.638;2023-02-17T12:59:31;42.40;;;23.60;;
68379;SDS011;57711;53.196;19.638;2023-02-17T13:02:08;50.50;;;27.50;;
68379;SDS011;57711;53.196;19.638;2023-02-17T13:04:40;46.80;;;27.20;;
68379;SDS011;57711;53.196;19.638;2023-02-17T13:10:15;54.50;;;28.00;;
68379;SDS011;57711;53.196;19.638;2023-02-17T13:12:55;50.40;;;27.10;;
68379;SDS011;57711;53.196;19.638;2023-02-17T13:15:33;54.40;;;30.50;;
68379;SDS011;57711;53.196;19.638;2023-02-17T13:18:05;46.50;;;27.40;;
68379;SDS011;57711;53.196;19.638;2023-02-17T13:23:12;57.40;;;30.20;;
68379;SDS011;57711;53.196;19.638;2023-02-17T13:28:35;84.00;;;36.40;;
68379;SDS011;57711;53.196;19.638;2023-02-17T13:31:10;90.30;;;37.80;;
68379;SDS011;57711;53.196;19.638;2023-02-17T13:33:47;94.20;;;38.70;;
68379;SDS011;57711;53.196;19.638;2023-02-17T13:36:19;72.50;;;32.50;;
68379;SDS011;57711;53.196;19.638;2023-02-17T13:38:54;76.70;;;37.00;;
68379;SDS011;57711;53.196;19.638;2023-02-17T13:41:28;59.70;;;31.00;;
68379;SDS011;57711;53.196;19.638;2023-02-17T13:44:04;51.50;;;26.00;;
68379;SDS011;57711;53.196;19.638;2023-02-17T13:46:46;40.00;;;23.00;;
68379;SDS011;57711;53.196;19.638;2023-02-17T13:49:18;39.40;;;21.50;;
68379;SDS011;57711;53.196;19.638;2023-02-17T13:51:48;54.30;;;23.50;;
68379;SDS011;57711;53.196;19.638;2023-02-17T13:54:18;39.40;;;21.30;;
68379;SDS011;57711;53.196;19.638;2023-02-17T13:56:49;48.80;;;27.50;;
68379;SDS011;57711;53.196;19.638;2023-02-17T13:59:23;68.10;;;32.70;;
68379;SDS011;57711;53.196;19.638;2023-02-17T14:01:51;66.50;;;28.20;;
68379;SDS011;57711;53.196;19.638;2023-02-17T14:04:27;50.60;;;26.20;;
68379;SDS011;57711;53.196;19.638;2023-02-17T14:06:57;48.40;;;23.30;;
68379;SDS011;57711;53.196;19.638;2023-02-17T14:09:26;40.80;;;19.40;;
68379;SDS011;57711;53.196;19.638;2023-02-17T14:11:57;51.20;;;23.10;;
68379;SDS011;57711;53.196;19.638;2023-02-17T14:14:33;50.10;;;22.60;;
68379;SDS011;57711;53.196;19.638;2023-02-17T14:19:41;47.20;;;26.00;;
68379;SDS011;57711;53.196;19.638;2023-02-17T14:22:24;53.60;;;26.80;;
68379;SDS011;57711;53.196;19.638;2023-02-17T14:24:59;46.00;;;22.70;;
68379;SDS011;57711;53.196;19.638;2023-02-17T14:27:47;48.80;;;26.20;;
68379;SDS011;57711;53.196;19.638;2023-02-17T14:33:04;39.40;;;20.40;;
68379;SDS011;57711;53.196;19.638;2023-02-17T14:35:57;43.70;;;18.60;;
68379;SDS011;57711;53.196;19.638;2023-02-17T14:38:30;29.30;;;13.40;;
68379;SDS011;57711;53.196;19.638;2023-02-17T14:41:04;47.40;;;20.10;;
68379;SDS011;57711;53.196;19.638;2023-02-17T14:43:32;28.00;;;13.30;;
68379;SDS011;57711;53.196;19.638;2023-02-17T14:45:59;25.70;;;13.30;;
68379;SDS011;57711;53.196;19.638;2023-02-17T14:48:27;29.00;;;13.70;;
68379;SDS011;57711;53.196;19.638;2023-02-17T14:50:55;37.70;;;17.90;;
68379;SDS011;57711;53.196;19.638;2023-02-17T14:58:52;33.70;;;16.60;;
68379;SDS011;57711;53.196;19.638;2023-02-17T15:01:20;36.30;;;17.30;;
68379;SDS011;57711;53.196;19.638;2023-02-17T15:03:49;32.20;;;16.40;;
68379;SDS011;57711;53.196;19.638;2023-02-17T15:06:20;29.60;;;14.20;;
68379;SDS011;57711;53.196;19.638;2023-02-17T15:08:53;32.70;;;18.00;;
68379;SDS011;57711;53.196;19.638;2023-02-17T15:11:32;36.00;;;18.50;;
68379;SDS011;57711;53.196;19.638;2023-02-17T15:14:03;32.30;;;15.80;;
68379;SDS011;57711;53.196;19.638;2023-02-17T15:16:30;36.30;;;19.60;;
68379;SDS011;57711;53.196;19.638;2023-02-17T15:18:58;41.20;;;19.30;;
68379;SDS011;57711;53.196;19.638;2023-02-17T15:23:54;25.20;;;13.30;;
68379;SDS011;57711;53.196;19.638;2023-02-17T15:26:22;33.40;;;14.40;;
68379;SDS011;57711;53.196;19.638;2023-02-17T15:28:50;35.10;;;15.10;;
68379;SDS011;57711;53.196;19.638;2023-02-17T15:31:19;36.30;;;16.30;;
68379;SDS011;57711;53.196;19.638;2023-02-17T15:34:05;53.80;;;23.20;;
68379;SDS011;57711;53.196;19.638;2023-02-17T15:36:36;61.30;;;26.90;;
68379;SDS011;57711;53.196;19.638;2023-02-17T15:39:03;83.20;;;35.30;;
68379;SDS011;57711;53.196;19.638;2023-02-17T15:41:30;55.70;;;23.70;;
68379;SDS011;57711;53.196;19.638;2023-02-17T15:43:57;51.40;;;23.70;;
68379;SDS011;57711;53.196;19.638;2023-02-17T15:46:28;45.40;;;25.30;;
68379;SDS011;57711;53.196;19.638;2023-02-17T15:48:58;48.40;;;22.20;;
68379;SDS011;57711;53.196;19.638;2023-02-17T15:51:25;42.20;;;19.90;;
68379;SDS011;57711;53.196;19.638;2023-02-17T15:53:52;33.20;;;15.80;;
68379;SDS011;57711;53.196;19.638;2023-02-17T15:56:20;32.40;;;13.60;;
68379;SDS011;57711;53.196;19.638;2023-02-17T15:58:49;21.70;;;11.90;;
68379;SDS011;57711;53.196;19.638;2023-02-17T16:01:27;20.20;;;11.50;;
68379;SDS011;57711;53.196;19.638;2023-02-17T16:03:57;27.40;;;16.70;;
68379;SDS011;57711;53.196;19.638;2023-02-17T16:06:25;39.40;;;17.10;;